Time;durP1;ratioP1;P1;durP2;ratioP2;P2;SDS_P1;SDS_P2;PMS_P1;PMS_P2;Temp;Humidity;BMP_temperature;BMP_pressure;BME280_temperature;BME280_humidity;BME280_pressure;Samples;Min_cycle;Max_cycle;Signal;HPM_P1;HPM_P2
2024/03/07 00:02:00;;;;;;;;;;;;;;;;;;4183905;28;20010;-62
2024/03/07 00:04:01;;;;;;;;;;;;;;;;;;4183700;28;20038;-62
2024/03/07 00:06:03;;;;;;;;;;;;;;;;;;4166105;28;19921;-62
2024/03/07 00:08:05;;;;;;;;;;;;;;;;;;4183932;28;19963;-62
2024/03/07 00:10:07;;;;;;;;;;;;;;;;;;4166128;28;19953;-62
2024/03/07 00:12:08;;;;;;;;;;;;;;;;;;4183753;28;19920;-62
2024/03/07 00:14:10;;;;;;;;;;;;;;;;;;4183626;28;19924;-62
2024/03/07 00:16:12;;;;;;;;;;;;;;;;;;4183816;28;19921;-62
2024/03/07 00:18:15;;;;;;;;;;;;;;;;;;4183506;28;20019;-62
2024/03/07 00:20:19;;;;;;;;;;;;;;;;;;4183648;28;19925;-62
2024/03/07 00:22:22;;;;;;;;;;;;;;;;;;4165421;28;19920;-62
2024/03/07 00:24:24;;;;;;;;;;;;;;;;;;4167052;28;19931;-62
2024/03/07 00:26:25;;;;;;;;;;;;;;;;;;4167209;28;19921;-62
2024/03/07 00:28:32;;;;;;;;;;;;;;;;;;4166906;28;19921;-62
2024/03/07 00:30:33;;;;;;;;;;;;;;;;;;4167002;28;20452;-62
2024/03/07 00:32:38;;;;;;;;;;;;;;;;;;4166960;28;19928;-62
2024/03/07 00:34:40;;;;;;;;;;;;;;;;;;4182269;28;19921;-62
2024/03/07 00:36:42;;;;;;;;;;;;;;;;;;4179822;28;19921;-62
2024/03/07 00:38:43;;;;;;;;;;;;;;;;;;4166777;28;19932;-62
2024/03/07 00:40:45;;;;;;;;;;;;;;;;;;4167085;28;19963;-62
2024/03/07 00:42:46;;;;;;;;;;;;;;;;;;4166823;28;20377;-62
2024/03/07 00:44:49;;;;;;;;;;;;;;;;;;4166729;28;19975;-62
2024/03/07 00:46:52;;;;;;;;;;;;;;;;;;4166764;28;20266;-62
2024/03/07 00:48:53;;;;;;;;;;;;;;;;;;4166746;28;20055;-62
2024/03/07 00:50:54;;;;;;;;;;;;;;;;;;4166764;28;19925;-61
2024/03/07 00:52:56;;;;;;;;;;;;;;;;;;4166663;28;19921;-59
2024/03/07 00:54:57;;;;;;;;;;;;;;;;;;4166599;28;19955;-59
2024/03/07 00:56:59;;;;;;;;;;;;;;;;;;4166642;28;19921;-59
2024/03/07 00:59:01;;;;;;;;;;;;;;;;;;4166646;28;19944;-60
2024/03/07 01:01:03;;;;;;;;;;;;;;;;;;4166605;28;20308;-59
2024/03/07 01:03:05;;;;;;;;;;;;;;;;;;4166244;28;20444;-59
2024/03/07 01:05:09;;;;;;;;;;;;;;;;;;4166426;28;19943;-59
2024/03/07 01:07:11;;;;;;;;;;;;;;;;;;4166589;28;19967;-59
2024/03/07 01:09:16;;;;;;;;;;;;;;;;;;4165173;28;19925;-59
2024/03/07 01:11:18;;;;;;;;;;;;;;;;;;4166279;28;19931;-60
2024/03/07 01:13:22;;;;;;;;;;;;;;;;;;4166327;28;19924;-59
2024/03/07 01:15:23;;;;;;;;;;;;;;;;;;4166213;28;20028;-59
2024/03/07 01:17:25;;;;;;;;;;;;;;;;;;4166305;28;19928;-59
2024/03/07 01:19:26;;;;;;;;;;;;;;;;;;4166248;28;19929;-59
2024/03/07 01:21:27;;;;;;;;;;;;;;;;;;4182024;28;19920;-59
2024/03/07 01:23:29;;;;;;;;;;;;;;;;;;4182580;28;19920;-59
2024/03/07 01:25:33;;;;;;;;;;;;;;;;;;4182621;28;19927;-59
2024/03/07 01:27:35;;;;;;;;;;;;;;;;;;4182671;28;19921;-59
2024/03/07 01:29:36;;;;;;;;;;;;;;;;;;4182673;28;19960;-59
2024/03/07 01:31:38;;;;;;;;;;;;;;;;;;4182478;28;20004;-59
2024/03/07 01:33:39;;;;;;;;;;;;;;;;;;4164712;28;20348;-59
2024/03/07 01:35:41;;;;;;;;;;;;;;;;;;4182577;28;19931;-59
2024/03/07 01:37:42;;;;;;;;;;;;;;;;;;4164669;28;19975;-59
2024/03/07 01:39:44;;;;;;;;;;;;;;;;;;4182601;28;19954;-60
2024/03/07 01:41:45;;;;;;;;;;;;;;;;;;4182406;28;20343;-59
2024/03/07 01:43:47;;;;;;;;;;;;;;;;;;4182169;28;20323;-59
2024/03/07 01:45:48;;;;;;;;;;;;;;;;;;4182113;28;19979;-60
2024/03/07 01:47:50;;;;;;;;;;;;;;;;;;4182277;28;19956;-59
2024/03/07 01:49:51;;;;;;;;;;;;;;;;;;4164482;28;20412;-59
2024/03/07 01:51:53;;;;;;;;;;;;;;;;;;4182198;28;19920;-59
2024/03/07 01:53:54;;;;;;;;;;;;;;;;;;4182266;28;19952;-59
2024/03/07 01:55:56;;;;;;;;;;;;;;;;;;4182398;28;19921;-59
2024/03/07 01:57:57;;;;;;;;;;;;;;;;;;4181185;28;19974;-59
2024/03/07 01:59:59;;;;;;;;;;;;;;;;;;4181990;28;19927;-59
2024/03/07 02:02:02;;;;;;;;;;;;;;;;;;4182243;28;19921;-62
2024/03/07 02:04:04;;;;;;;;;;;;;;;;;;4181689;28;20004;-62
2024/03/07 02:06:05;;;;;;;;;;;;;;;;;;4181860;28;20438;-62
2024/03/07 02:08:07;;;;;;;;;;;;;;;;;;4181842;28;19951;-62
2024/03/07 02:10:09;;;;;;;;;;;;;;;;;;4179335;28;19920;-62
2024/03/07 02:12:10;;;;;;;;;;;;;;;;;;4165205;28;20344;-62
2024/03/07 02:14:12;;;;;;;;;;;;;;;;;;4165335;28;19928;-62
2024/03/07 02:16:13;;;;;;;;;;;;;;;;;;4165317;28;19995;-62
2024/03/07 02:18:15;;;;;;;;;;;;;;;;;;4165314;28;19928;-62
2024/03/07 02:20:17;;;;;;;;;;;;;;;;;;4165129;28;19967;-62
2024/03/07 02:22:18;;;;;;;;;;;;;;;;;;4165192;28;19928;-61
2024/03/07 02:24:19;;;;;;;;;;;;;;;;;;4165174;28;20343;-62
2024/03/07 02:26:21;;;;;;;;;;;;;;;;;;4156352;28;19948;-62
2024/03/07 02:28:22;;;;;;;;;;;;;;;;;;4181895;28;19921;-61
2024/03/07 02:30:24;;;;;;;;;;;;;;;;;;4181759;28;19943;-62
2024/03/07 02:32:26;;;;;;;;;;;;;;;;;;4181889;28;20411;-62
2024/03/07 02:34:28;;;;;;;;;;;;;;;;;;4181414;28;19920;-62
2024/03/07 02:36:29;;;;;;;;;;;;;;;;;;4181675;28;19920;-62
2024/03/07 02:38:31;;;;;;;;;;;;;;;;;;4181456;28;20000;-62
2024/03/07 02:40:33;;;;;;;;;;;;;;;;;;4181619;28;20015;-62
2024/03/07 02:42:35;;;;;;;;;;;;;;;;;;4181360;28;19924;-62
2024/03/07 02:44:38;;;;;;;;;;;;;;;;;;4181319;28;19921;-62
2024/03/07 02:46:39;;;;;;;;;;;;;;;;;;4181343;28;19921;-62
2024/03/07 02:48:41;;;;;;;;;;;;;;;;;;4181479;28;19928;-62
2024/03/07 02:50:43;;;;;;;;;;;;;;;;;;4181266;28;20372;-62
2024/03/07 02:52:44;;;;;;;;;;;;;;;;;;4181347;28;20453;-62
2024/03/07 02:54:46;;;;;;;;;;;;;;;;;;4181132;28;19927;-62
2024/03/07 02:56:47;;;;;;;;;;;;;;;;;;4180173;28;19967;-62
2024/03/07 02:58:49;;;;;;;;;;;;;;;;;;4179752;28;19928;-62
2024/03/07 03:00:50;;;;;;;;;;;;;;;;;;4179967;28;19921;-62
2024/03/07 03:02:52;;;;;;;;;;;;;;;;;;4179985;28;19920;-62
2024/03/07 03:04:54;;;;;;;;;;;;;;;;;;4180090;28;19974;-62
2024/03/07 03:06:56;;;;;;;;;;;;;;;;;;4157515;28;19922;-62
2024/03/07 03:08:58;;;;;;;;;;;;;;;;;;4146828;28;19968;-62
2024/03/07 03:10:59;;;;;;;;;;;;;;;;;;4164280;28;19920;-60
2024/03/07 03:13:01;;;;;;;;;;;;;;;;;;4146865;28;19928;-62
2024/03/07 03:15:06;;;;;;;;;;;;;;;;;;4164723;28;20373;-62
2024/03/07 03:17:08;;;;;;;;;;;;;;;;;;4164545;28;19924;-62
2024/03/07 03:19:10;;;;;;;;;;;;;;;;;;4164089;28;20011;-62
2024/03/07 03:21:12;;;;;;;;;;;;;;;;;;4164758;28;19921;-62
2024/03/07 03:23:13;;;;;;;;;;;;;;;;;;4164459;28;19944;-62
2024/03/07 03:25:21;;;;;;;;;;;;;;;;;;4164538;28;19925;-62
2024/03/07 03:27:22;;;;;;;;;;;;;;;;;;4164832;28;19936;-62
2024/03/07 03:29:23;;;;;;;;;;;;;;;;;;4164493;28;20285;-62
2024/03/07 03:31:25;;;;;;;;;;;;;;;;;;4164530;28;19973;-62
2024/03/07 03:33:26;;;;;;;;;;;;;;;;;;4167769;28;19921;-62
2024/03/07 03:35:28;;;;;;;;;;;;;;;;;;4167752;28;19921;-62
2024/03/07 03:37:29;;;;;;;;;;;;;;;;;;4167882;28;19921;-62
2024/03/07 03:39:31;;;;;;;;;;;;;;;;;;4167926;28;19928;-62
2024/03/07 03:41:32;;;;;;;;;;;;;;;;;;4167752;28;19971;-62
2024/03/07 03:43:34;;;;;;;;;;;;;;;;;;4149946;28;19929;-62
2024/03/07 03:45:35;;;;;;;;;;;;;;;;;;4167474;28;20435;-62
2024/03/07 03:47:37;;;;;;;;;;;;;;;;;;4167959;28;19921;-62
2024/03/07 03:49:38;;;;;;;;;;;;;;;;;;4167965;28;19928;-62
2024/03/07 03:51:40;;;;;;;;;;;;;;;;;;4150203;28;19929;-62
2024/03/07 03:53:41;;;;;;;;;;;;;;;;;;4167903;28;19921;-62
2024/03/07 03:55:43;;;;;;;;;;;;;;;;;;4167461;28;19921;-62
2024/03/07 03:57:46;;;;;;;;;;;;;;;;;;4167450;28;19921;-62
2024/03/07 03:59:48;;;;;;;;;;;;;;;;;;4167458;28;19975;-62
2024/03/07 04:01:49;;;;;;;;;;;;;;;;;;4167679;28;20023;-62
2024/03/07 04:03:51;;;;;;;;;;;;;;;;;;4167130;28;19921;-62
2024/03/07 04:05:52;;;;;;;;;;;;;;;;;;4167598;28;19921;-62
2024/03/07 04:07:55;;;;;;;;;;;;;;;;;;4167510;28;19921;-62
2024/03/07 04:09:57;;;;;;;;;;;;;;;;;;4167525;28;19928;-62
2024/03/07 04:11:59;;;;;;;;;;;;;;;;;;4167364;28;19948;-62
2024/03/07 04:14:01;;;;;;;;;;;;;;;;;;4149589;28;19983;-62
2024/03/07 04:16:02;;;;;;;;;;;;;;;;;;4167248;28;19921;-62
2024/03/07 04:18:04;;;;;;;;;;;;;;;;;;4169892;28;19957;-62
2024/03/07 04:20:06;;;;;;;;;;;;;;;;;;4183631;28;20412;-62
2024/03/07 04:22:10;;;;;;;;;;;;;;;;;;4183884;28;19927;-60
2024/03/07 04:24:13;;;;;;;;;;;;;;;;;;4183606;28;19920;-59
2024/03/07 04:26:14;;;;;;;;;;;;;;;;;;4183637;28;19921;-60
2024/03/07 04:28:16;;;;;;;;;;;;;;;;;;4183595;28;19925;-60
2024/03/07 04:30:17;;;;;;;;;;;;;;;;;;4183571;28;19932;-59
2024/03/07 04:32:19;;;;;;;;;;;;;;;;;;4183467;28;19982;-59
2024/03/07 04:34:20;;;;;;;;;;;;;;;;;;4183435;28;19932;-59
2024/03/07 04:36:22;;;;;;;;;;;;;;;;;;4165565;28;20692;-59
2024/03/07 04:38:23;;;;;;;;;;;;;;;;;;4183359;28;19924;-59
2024/03/07 04:40:25;;;;;;;;;;;;;;;;;;4183565;28;19930;-59
2024/03/07 04:42:26;;;;;;;;;;;;;;;;;;4183491;28;19964;-59
2024/03/07 04:44:27;;;;;;;;;;;;;;;;;;4182872;28;19924;-59
2024/03/07 04:46:30;;;;;;;;;;;;;;;;;;4183211;28;20339;-59
2024/03/07 04:48:32;;;;;;;;;;;;;;;;;;4183127;28;19999;-60
2024/03/07 04:50:33;;;;;;;;;;;;;;;;;;4183258;28;19951;-60
2024/03/07 04:52:35;;;;;;;;;;;;;;;;;;4183223;28;19921;-59
2024/03/07 04:54:36;;;;;;;;;;;;;;;;;;4183087;28;19955;-59
2024/03/07 04:56:38;;;;;;;;;;;;;;;;;;4183178;28;20319;-59
2024/03/07 04:58:39;;;;;;;;;;;;;;;;;;4183102;28;20012;-59
2024/03/07 05:00:41;;;;;;;;;;;;;;;;;;4183374;28;19920;-59
2024/03/07 05:02:45;;;;;;;;;;;;;;;;;;4182823;28;20043;-60
2024/03/07 05:04:49;;;;;;;;;;;;;;;;;;4174771;28;19991;-59
2024/03/07 05:06:51;;;;;;;;;;;;;;;;;;4183106;28;19926;-60
2024/03/07 05:08:52;;;;;;;;;;;;;;;;;;4182934;28;20304;-59
2024/03/07 05:10:54;;;;;;;;;;;;;;;;;;4181451;28;20290;-59
2024/03/07 05:12:58;;;;;;;;;;;;;;;;;;4165841;28;19925;-59
2024/03/07 05:15:00;;;;;;;;;;;;;;;;;;4167855;28;19928;-60
2024/03/07 05:17:10;;;;;;;;;;;;;;;;;;4166555;28;19928;-59
2024/03/07 05:19:12;;;;;;;;;;;;;;;;;;4165759;28;20369;-59
2024/03/07 05:23:33;;;;;;;;;;;;;;;;;;4149673;28;19944;-59
2024/03/07 05:25:35;;;;;;;;;;;;;;;;;;4149962;28;20370;-59
2024/03/07 05:27:36;;;;;;;;;;;;;;;;;;4150386;28;19925;-59
2024/03/07 05:29:38;;;;;;;;;;;;;;;;;;4149915;28;19921;-60
2024/03/07 05:31:49;;;;;;;;;;;;;;;;;;4149717;28;19928;-59
2024/03/07 05:33:50;;;;;;;;;;;;;;;;;;4150054;28;19932;-60
2024/03/07 05:36:02;;;;;;;;;;;;;;;;;;4149638;28;19925;-59
2024/03/07 05:38:04;;;;;;;;;;;;;;;;;;4149690;28;19929;-59
2024/03/07 05:40:07;;;;;;;;;;;;;;;;;;4149790;28;20048;-59
2024/03/07 05:42:13;;;;;;;;;;;;;;;;;;4149718;28;19921;-59
2024/03/07 05:44:15;;;;;;;;;;;;;;;;;;4149480;28;20369;-59
2024/03/07 05:46:17;;;;;;;;;;;;;;;;;;4149559;28;19929;-59
2024/03/07 05:48:18;;;;;;;;;;;;;;;;;;4150328;28;20293;-59
2024/03/07 05:50:20;;;;;;;;;;;;;;;;;;4166019;28;19963;-60
2024/03/07 05:52:22;;;;;;;;;;;;;;;;;;4165781;28;19956;-59
2024/03/07 05:54:23;;;;;;;;;;;;;;;;;;4165427;28;19928;-59
2024/03/07 05:56:24;;;;;;;;;;;;;;;;;;4147873;28;19925;-59
2024/03/07 05:58:26;;;;;;;;;;;;;;;;;;4162971;28;20434;-60
2024/03/07 06:00:28;;;;;;;;;;;;;;;;;;4161691;28;19999;-59
2024/03/07 06:02:30;;;;;;;;;;;;;;;;;;4165827;28;20012;-59
2024/03/07 06:04:32;;;;;;;;;;;;;;;;;;4170282;28;20300;-60
2024/03/07 06:06:33;;;;;;;;;;;;;;;;;;4162722;28;19928;-59
2024/03/07 06:08:35;;;;;;;;;;;;;;;;;;4181927;28;19967;-59
2024/03/07 06:10:36;;;;;;;;;;;;;;;;;;4181910;28;19963;-59
2024/03/07 06:12:40;;;;;;;;;;;;;;;;;;4176424;28;20302;-59
2024/03/07 06:14:46;;;;;;;;;;;;;;;;;;4165384;28;20145;-59
2024/03/07 06:16:48;;;;;;;;;;;;;;;;;;4165164;28;19974;-59
2024/03/07 06:18:50;;;;;;;;;;;;;;;;;;4165440;28;19928;-66
2024/03/07 06:20:52;;;;;;;;;;;;;;;;;;4165249;28;19924;-66
2024/03/07 06:22:53;;;;;;;;;;;;;;;;;;4164872;28;20016;-66
2024/03/07 06:24:55;;;;;;;;;;;;;;;;;;4155669;28;19948;-66
2024/03/07 06:27:00;;;;;;;;;;;;;;;;;;4163797;28;19956;-66
2024/03/07 06:29:01;;;;;;;;;;;;;;;;;;4165173;28;19927;-66
2024/03/07 06:31:07;;;;;;;;;;;;;;;;;;4165198;28;19971;-66
2024/03/07 06:33:09;;;;;;;;;;;;;;;;;;4164208;28;19921;-67
2024/03/07 06:35:11;;;;;;;;;;;;;;;;;;4164584;28;19921;-67
2024/03/07 06:37:12;;;;;;;;;;;;;;;;;;4163527;28;19964;-68
2024/03/07 06:39:14;;;;;;;;;;;;;;;;;;4165148;28;20332;-68
2024/03/07 06:41:15;;;;;;;;;;;;;;;;;;4165019;28;19947;-68
2024/03/07 06:43:17;;;;;;;;;;;;;;;;;;4165410;28;19925;-68
2024/03/07 06:45:18;;;;;;;;;;;;;;;;;;4164692;28;19921;-69
2024/03/07 06:47:20;;;;;;;;;;;;;;;;;;4164838;28;20380;-69
2024/03/07 06:49:21;;;;;;;;;;;;;;;;;;4164902;28;19928;-69
2024/03/07 06:51:24;;;;;;;;;;;;;;;;;;4164850;28;20284;-69
2024/03/07 06:53:28;;;;;;;;;;;;;;;;;;4164905;28;19959;-69
2024/03/07 06:55:29;;;;;;;;;;;;;;;;;;4180384;28;19974;-70
2024/03/07 06:57:31;;;;;;;;;;;;;;;;;;4168365;28;19971;-70
2024/03/07 06:59:32;;;;;;;;;;;;;;;;;;4164792;28;20341;-70
2024/03/07 07:01:34;;;;;;;;;;;;;;;;;;4164964;28;19928;-70
2024/03/07 07:03:35;;;;;;;;;;;;;;;;;;4164273;28;19925;-70
2024/03/07 07:05:38;;;;;;;;;;;;;;;;;;4164627;28;19925;-69
2024/03/07 07:07:43;;;;;;;;;;;;;;;;;;4173869;28;20307;-70
2024/03/07 07:09:45;;;;;;;;;;;;;;;;;;4181378;28;20368;-70
2024/03/07 07:11:47;;;;;;;;;;;;;;;;;;4174121;28;19925;-69
2024/03/07 07:13:49;;;;;;;;;;;;;;;;;;4164795;28;19925;-69
2024/03/07 07:15:50;;;;;;;;;;;;;;;;;;4164392;28;19971;-69
2024/03/07 07:17:52;;;;;;;;;;;;;;;;;;4164475;28;19929;-69
2024/03/07 07:19:55;;;;;;;;;;;;;;;;;;4146890;28;20024;-69
2024/03/07 07:21:57;;;;;;;;;;;;;;;;;;4164681;28;19932;-69
2024/03/07 07:23:58;;;;;;;;;;;;;;;;;;4147062;28;20345;-69
2024/03/07 07:26:00;;;;;;;;;;;;;;;;;;4164659;28;19921;-69
2024/03/07 07:28:04;;;;;;;;;;;;;;;;;;4164639;28;19921;-69
2024/03/07 07:30:06;;;;;;;;;;;;;;;;;;4164705;28;20412;-69
2024/03/07 07:32:07;;;;;;;;;;;;;;;;;;4164640;28;19964;-69
2024/03/07 07:34:09;;;;;;;;;;;;;;;;;;4164692;28;20040;-69
2024/03/07 07:36:11;;;;;;;;;;;;;;;;;;4164545;28;19925;-69
2024/03/07 07:38:14;;;;;;;;;;;;;;;;;;4164529;28;20308;-68
2024/03/07 07:40:19;;;;;;;;;;;;;;;;;;4164489;28;19921;-69
2024/03/07 07:42:21;;;;;;;;;;;;;;;;;;4164382;28;20496;-69
2024/03/07 07:44:22;;;;;;;;;;;;;;;;;;4164258;28;19931;-69
2024/03/07 07:46:24;;;;;;;;;;;;;;;;;;4164403;28;19925;-68
2024/03/07 07:48:25;;;;;;;;;;;;;;;;;;4164458;28;19975;-68
2024/03/07 07:50:28;;;;;;;;;;;;;;;;;;4169321;28;19964;-68
2024/03/07 07:52:30;;;;;;;;;;;;;;;;;;4179533;28;19929;-68
2024/03/07 07:54:31;;;;;;;;;;;;;;;;;;4164591;28;19925;-65
2024/03/07 07:56:33;;;;;;;;;;;;;;;;;;4164223;28;19921;-66
2024/03/07 07:58:34;;;;;;;;;;;;;;;;;;4164274;28;20262;-66
2024/03/07 08:00:36;;;;;;;;;;;;;;;;;;4164266;28;20372;-66
2024/03/07 08:02:38;;;;;;;;;;;;;;;;;;4164192;28;20015;-65
2024/03/07 08:04:40;;;;;;;;;;;;;;;;;;4179443;28;20299;-65
2024/03/07 08:06:41;;;;;;;;;;;;;;;;;;4180730;28;19925;-66
2024/03/07 08:08:42;;;;;;;;;;;;;;;;;;4180570;28;19932;-65
2024/03/07 08:10:47;;;;;;;;;;;;;;;;;;4180842;28;19963;-65
2024/03/07 08:12:50;;;;;;;;;;;;;;;;;;4180810;28;19921;-65
2024/03/07 08:14:51;;;;;;;;;;;;;;;;;;4180629;28;19920;-65
2024/03/07 08:16:53;;;;;;;;;;;;;;;;;;4180603;28;19943;-65
2024/03/07 08:18:55;;;;;;;;;;;;;;;;;;4182550;28;19921;-65
2024/03/07 08:20:57;;;;;;;;;;;;;;;;;;4183568;28;19925;-65
2024/03/07 08:22:59;;;;;;;;;;;;;;;;;;4183590;28;19924;-65
2024/03/07 08:25:01;;;;;;;;;;;;;;;;;;4165954;28;20379;-65
2024/03/07 08:27:03;;;;;;;;;;;;;;;;;;4183683;28;19921;-65
2024/03/07 08:29:05;;;;;;;;;;;;;;;;;;4183742;28;20288;-65
2024/03/07 08:31:06;;;;;;;;;;;;;;;;;;4183601;28;19975;-65
2024/03/07 08:33:08;;;;;;;;;;;;;;;;;;4149612;28;19977;-65
2024/03/07 08:35:09;;;;;;;;;;;;;;;;;;4183405;28;19975;-65
2024/03/07 08:37:12;;;;;;;;;;;;;;;;;;4183230;28;19921;-65
2024/03/07 08:39:15;;;;;;;;;;;;;;;;;;4183417;28;19924;-65
2024/03/07 08:41:16;;;;;;;;;;;;;;;;;;4183391;28;20058;-65
2024/03/07 08:43:17;;;;;;;;;;;;;;;;;;4183287;28;19925;-65
2024/03/07 08:45:19;;;;;;;;;;;;;;;;;;4183066;28;19928;-65
2024/03/07 08:47:20;;;;;;;;;;;;;;;;;;4183402;28;19925;-65
2024/03/07 08:49:22;;;;;;;;;;;;;;;;;;4176802;28;19924;-65
2024/03/07 08:51:24;;;;;;;;;;;;;;;;;;4167238;28;19929;-65
2024/03/07 08:53:25;;;;;;;;;;;;;;;;;;4166571;28;19960;-65
2024/03/07 08:55:27;;;;;;;;;;;;;;;;;;4166655;28;20292;-65
2024/03/07 08:57:28;;;;;;;;;;;;;;;;;;4166589;28;19925;-65
2024/03/07 08:59:30;;;;;;;;;;;;;;;;;;4170400;28;19990;-65
2024/03/07 09:01:31;;;;;;;;;;;;;;;;;;4183321;28;19990;-65
2024/03/07 09:03:33;;;;;;;;;;;;;;;;;;4182757;28;19986;-65
2024/03/07 09:05:34;;;;;;;;;;;;;;;;;;4183376;28;19967;-65
2024/03/07 09:07:36;;;;;;;;;;;;;;;;;;4182845;28;19924;-65
2024/03/07 09:09:37;;;;;;;;;;;;;;;;;;4182883;28;19920;-65
2024/03/07 09:11:42;;;;;;;;;;;;;;;;;;4182821;28;20288;-65
2024/03/07 09:13:43;;;;;;;;;;;;;;;;;;4182733;28;19931;-65
2024/03/07 09:15:45;;;;;;;;;;;;;;;;;;4182978;28;19921;-65
2024/03/07 09:17:47;;;;;;;;;;;;;;;;;;4182635;28;19966;-65
2024/03/07 09:19:49;;;;;;;;;;;;;;;;;;4182837;28;19924;-65
2024/03/07 09:21:51;;;;;;;;;;;;;;;;;;4182579;28;19964;-65
2024/03/07 09:23:52;;;;;;;;;;;;;;;;;;4182628;28;19928;-65
2024/03/07 09:25:54;;;;;;;;;;;;;;;;;;4182596;28;19921;-65
2024/03/07 09:27:56;;;;;;;;;;;;;;;;;;4182751;28;20331;-65
2024/03/07 09:29:57;;;;;;;;;;;;;;;;;;4181651;28;19931;-65
2024/03/07 09:31:59;;;;;;;;;;;;;;;;;;4182589;28;20276;-66
2024/03/07 09:34:01;;;;;;;;;;;;;;;;;;4182599;28;19962;-65
2024/03/07 09:36:02;;;;;;;;;;;;;;;;;;4182672;28;19958;-66
2024/03/07 09:38:06;;;;;;;;;;;;;;;;;;4182388;28;19921;-65
2024/03/07 09:40:09;;;;;;;;;;;;;;;;;;4164735;28;19931;-65
2024/03/07 09:42:10;;;;;;;;;;;;;;;;;;4182306;28;19921;-65
2024/03/07 09:44:12;;;;;;;;;;;;;;;;;;4182111;28;19925;-65
2024/03/07 09:46:13;;;;;;;;;;;;;;;;;;4170950;28;20409;-65
2024/03/07 09:48:15;;;;;;;;;;;;;;;;;;4165855;28;19921;-65
2024/03/07 09:50:18;;;;;;;;;;;;;;;;;;4165850;28;19920;-65
2024/03/07 09:52:20;;;;;;;;;;;;;;;;;;4165690;28;20399;-65
2024/03/07 09:54:24;;;;;;;;;;;;;;;;;;4166107;28;20656;-65
2024/03/07 09:56:25;;;;;;;;;;;;;;;;;;4175033;28;20291;-65
2024/03/07 09:58:27;;;;;;;;;;;;;;;;;;4182081;28;19921;-65
2024/03/07 10:00:29;;;;;;;;;;;;;;;;;;4164421;28;20347;-65
2024/03/07 10:02:32;;;;;;;;;;;;;;;;;;4182173;28;19921;-65
2024/03/07 10:04:33;;;;;;;;;;;;;;;;;;4181793;28;19924;-66
2024/03/07 10:06:35;;;;;;;;;;;;;;;;;;4181999;28;19939;-65
2024/03/07 10:08:36;;;;;;;;;;;;;;;;;;4181947;28;19925;-66
2024/03/07 10:10:38;;;;;;;;;;;;;;;;;;4182113;28;19921;-66
2024/03/07 10:12:39;;;;;;;;;;;;;;;;;;4181979;28;19963;-65
2024/03/07 10:14:42;;;;;;;;;;;;;;;;;;4181796;28;19921;-67
2024/03/07 10:16:47;;;;;;;;;;;;;;;;;;4182104;28;20304;-65
2024/03/07 10:18:50;;;;;;;;;;;;;;;;;;4172887;28;19925;-65
2024/03/07 10:20:51;;;;;;;;;;;;;;;;;;4165289;28;20380;-66
2024/03/07 10:22:53;;;;;;;;;;;;;;;;;;4165238;28;19925;-65
2024/03/07 10:24:55;;;;;;;;;;;;;;;;;;4147647;28;19968;-65
2024/03/07 10:26:58;;;;;;;;;;;;;;;;;;4165249;28;19979;-65
2024/03/07 10:29:00;;;;;;;;;;;;;;;;;;4165320;28;20015;-65
2024/03/07 10:31:03;;;;;;;;;;;;;;;;;;4165116;28;19943;-65
2024/03/07 10:33:07;;;;;;;;;;;;;;;;;;4165338;28;19975;-65
2024/03/07 10:35:08;;;;;;;;;;;;;;;;;;4165132;28;19921;-65
2024/03/07 10:37:11;;;;;;;;;;;;;;;;;;4165196;28;19921;-65
2024/03/07 10:39:16;;;;;;;;;;;;;;;;;;4170172;28;19951;-65
2024/03/07 10:41:17;;;;;;;;;;;;;;;;;;4179886;28;19920;-65
2024/03/07 10:43:19;;;;;;;;;;;;;;;;;;4154793;28;20060;-64
2024/03/07 10:45:23;;;;;;;;;;;;;;;;;;4163142;28;20344;-65
2024/03/07 10:47:25;;;;;;;;;;;;;;;;;;4164768;28;19925;-65
2024/03/07 10:49:28;;;;;;;;;;;;;;;;;;4155424;28;20339;-65
2024/03/07 10:51:30;;;;;;;;;;;;;;;;;;4159484;28;19929;-65
2024/03/07 10:53:31;;;;;;;;;;;;;;;;;;4164512;28;19921;-64
2024/03/07 10:55:36;;;;;;;;;;;;;;;;;;4164743;28;19928;-66
2024/03/07 10:57:38;;;;;;;;;;;;;;;;;;4160842;28;20019;-65
2024/03/07 10:59:40;;;;;;;;;;;;;;;;;;4160134;28;20377;-64
2024/03/07 11:01:41;;;;;;;;;;;;;;;;;;4149110;28;19936;-65
2024/03/07 11:03:43;;;;;;;;;;;;;;;;;;4152772;28;20020;-64
2024/03/07 11:05:44;;;;;;;;;;;;;;;;;;4154156;28;20363;-65
2024/03/07 11:07:47;;;;;;;;;;;;;;;;;;4151976;28;19921;-64
2024/03/07 11:09:49;;;;;;;;;;;;;;;;;;4147595;28;19926;-65
2024/03/07 11:11:50;;;;;;;;;;;;;;;;;;4156947;28;19929;-65
2024/03/07 11:13:54;;;;;;;;;;;;;;;;;;4150297;28;19925;-65
2024/03/07 11:15:57;;;;;;;;;;;;;;;;;;4149434;28;20374;-65
2024/03/07 11:17:59;;;;;;;;;;;;;;;;;;4158429;28;20376;-65
2024/03/07 11:20:00;;;;;;;;;;;;;;;;;;4151973;28;20006;-66
2024/03/07 11:22:02;;;;;;;;;;;;;;;;;;4148537;28;19921;-65
2024/03/07 11:24:05;;;;;;;;;;;;;;;;;;4130702;28;20017;-65
2024/03/07 11:26:10;;;;;;;;;;;;;;;;;;4149221;28;19922;-65
2024/03/07 11:28:13;;;;;;;;;;;;;;;;;;4162253;28;20021;-65
2024/03/07 11:30:15;;;;;;;;;;;;;;;;;;4138490;28;19921;-65
2024/03/07 11:32:16;;;;;;;;;;;;;;;;;;4156831;28;19987;-65
2024/03/07 11:34:18;;;;;;;;;;;;;;;;;;4152937;28;19989;-65
2024/03/07 11:36:22;;;;;;;;;;;;;;;;;;4161555;28;20533;-65
2024/03/07 11:38:23;;;;;;;;;;;;;;;;;;4156120;28;19921;-65
2024/03/07 11:40:26;;;;;;;;;;;;;;;;;;4163681;28;20372;-66
2024/03/07 11:42:36;;;;;;;;;;;;;;;;;;4157987;28;19962;-65
2024/03/07 11:44:40;;;;;;;;;;;;;;;;;;4153686;28;19933;-65
2024/03/07 11:46:43;;;;;;;;;;;;;;;;;;4151813;28;19929;-65
2024/03/07 11:48:44;;;;;;;;;;;;;;;;;;4163078;28;19928;-65
2024/03/07 11:50:46;;;;;;;;;;;;;;;;;;4163816;28;20288;-65
2024/03/07 11:52:50;;;;;;;;;;;;;;;;;;4148414;28;19985;-65
2024/03/07 11:54:52;;;;;;;;;;;;;;;;;;4136897;28;19925;-65
2024/03/07 11:56:56;;;;;;;;;;;;;;;;;;4166414;28;19928;-65
2024/03/07 11:58:59;;;;;;;;;;;;;;;;;;4166432;28;19972;-65
2024/03/07 12:01:01;;;;;;;;;;;;;;;;;;4166657;28;19948;-65
2024/03/07 12:03:06;;;;;;;;;;;;;;;;;;4113195;28;1213270;-66
2024/03/07 12:05:08;;;;;;;;;;;;;;;;;;4159629;28;20012;-65
2024/03/07 12:07:10;;;;;;;;;;;;;;;;;;4156699;28;19921;-65
2024/03/07 12:09:23;;;;;;;;;;;;;;;;;;4159757;28;19921;-66
2024/03/07 12:11:25;;;;;;;;;;;;;;;;;;4159705;28;20399;-65
2024/03/07 12:13:27;;;;;;;;;;;;;;;;;;4158764;28;19971;-65
2024/03/07 12:15:29;;;;;;;;;;;;;;;;;;4167079;28;19952;-66
2024/03/07 12:17:31;;;;;;;;;;;;;;;;;;4160733;28;19972;-66
2024/03/07 12:19:32;;;;;;;;;;;;;;;;;;4161271;28;19928;-65
2024/03/07 12:21:35;;;;;;;;;;;;;;;;;;4165898;28;19928;-66
2024/03/07 12:23:37;;;;;;;;;;;;;;;;;;4167056;28;19921;-65
2024/03/07 12:25:39;;;;;;;;;;;;;;;;;;4163686;28;19975;-65
2024/03/07 12:27:40;;;;;;;;;;;;;;;;;;4163128;28;19932;-65
2024/03/07 12:29:48;;;;;;;;;;;;;;;;;;4167043;28;20300;-65
2024/03/07 12:31:49;;;;;;;;;;;;;;;;;;4172902;28;19920;-65
2024/03/07 12:33:51;;;;;;;;;;;;;;;;;;4181431;28;19929;-65
2024/03/07 12:35:59;;;;;;;;;;;;;;;;;;4167007;28;19967;-65
2024/03/07 12:38:03;;;;;;;;;;;;;;;;;;4166767;28;20301;-65
2024/03/07 12:40:05;;;;;;;;;;;;;;;;;;4164212;28;19928;-65
2024/03/07 12:42:06;;;;;;;;;;;;;;;;;;4162386;28;20336;-60
2024/03/07 12:44:11;;;;;;;;;;;;;;;;;;4166599;28;19921;-60
2024/03/07 12:46:14;;;;;;;;;;;;;;;;;;4166661;28;19921;-60
2024/03/07 12:48:16;;;;;;;;;;;;;;;;;;4166730;28;19921;-59
2024/03/07 12:50:20;;;;;;;;;;;;;;;;;;4153142;28;20400;-59
2024/03/07 12:52:22;;;;;;;;;;;;;;;;;;4149388;28;19925;-59
2024/03/07 12:54:23;;;;;;;;;;;;;;;;;;4150315;28;19932;-59
2024/03/07 12:56:27;;;;;;;;;;;;;;;;;;4150566;28;19922;-59
2024/03/07 12:58:30;;;;;;;;;;;;;;;;;;4150260;28;19960;-60
2024/03/07 13:00:31;;;;;;;;;;;;;;;;;;4150374;28;20278;-60
2024/03/07 13:02:33;;;;;;;;;;;;;;;;;;4163664;28;19932;-60
2024/03/07 13:04:34;;;;;;;;;;;;;;;;;;4165943;28;20364;-59
2024/03/07 13:06:36;;;;;;;;;;;;;;;;;;4166472;28;19921;-59
2024/03/07 13:08:37;;;;;;;;;;;;;;;;;;4148747;28;19929;-59
2024/03/07 13:10:39;;;;;;;;;;;;;;;;;;4166403;28;19928;-59
2024/03/07 13:12:42;;;;;;;;;;;;;;;;;;4166447;28;19921;-59
2024/03/07 13:14:44;;;;;;;;;;;;;;;;;;4166630;28;19967;-59
2024/03/07 13:16:46;;;;;;;;;;;;;;;;;;4161934;28;19933;-59
2024/03/07 13:18:47;;;;;;;;;;;;;;;;;;4161404;28;19921;-59
2024/03/07 13:20:49;;;;;;;;;;;;;;;;;;4166462;28;19929;-60
2024/03/07 13:22:51;;;;;;;;;;;;;;;;;;4166106;28;20293;-59
2024/03/07 13:24:53;;;;;;;;;;;;;;;;;;4166049;28;19920;-59
2024/03/07 13:26:54;;;;;;;;;;;;;;;;;;4162997;28;19979;-60
2024/03/07 13:29:00;;;;;;;;;;;;;;;;;;4171328;28;19925;-59
2024/03/07 13:31:03;;;;;;;;;;;;;;;;;;4158853;28;19971;-60
2024/03/07 13:33:05;;;;;;;;;;;;;;;;;;4149936;28;19928;-60
2024/03/07 13:35:11;;;;;;;;;;;;;;;;;;4149681;28;20293;-58
2024/03/07 13:37:17;;;;;;;;;;;;;;;;;;4152251;28;20448;-59
2024/03/07 13:39:18;;;;;;;;;;;;;;;;;;4158426;28;19925;-59
2024/03/07 13:41:20;;;;;;;;;;;;;;;;;;4159874;28;19921;-59
2024/03/07 13:43:21;;;;;;;;;;;;;;;;;;4146768;28;19938;-60
2024/03/07 13:45:23;;;;;;;;;;;;;;;;;;4160415;28;19921;-59
2024/03/07 13:47:25;;;;;;;;;;;;;;;;;;4165820;28;20411;-59
2024/03/07 13:49:27;;;;;;;;;;;;;;;;;;4165835;28;20611;-59
2024/03/07 13:51:29;;;;;;;;;;;;;;;;;;4165854;28;19925;-60
2024/03/07 13:56:17;;;;;;;;;;;;;;;;;;4163172;28;19928;-59
2024/03/07 13:58:19;;;;;;;;;;;;;;;;;;4165492;28;19921;-59
2024/03/07 14:00:20;;;;;;;;;;;;;;;;;;4165523;28;19925;-59